Time;durP1;ratioP1;P1;durP2;ratioP2;P2;SDS_P1;SDS_P2;PMS_P1;PMS_P2;Temp;Humidity;BMP_temperature;BMP_pressure;BME280_temperature;BME280_humidity;BME280_pressure;Samples;Min_cycle;Max_cycle;Signal;HPM_P1;HPM_P2
2021/10/20 00:00:19;;;;;;;82.65;42.03;;;;;;;;;;2112416;28;20568;-42
2021/10/20 00:01:20;;;;;;;75.68;39.15;;;;;;;;;;2114841;28;20184;-42
2021/10/20 00:02:21;;;;;;;73.63;38.45;;;;;;;;;;2114791;28;20457;-42
2021/10/20 00:03:22;;;;;;;75.10;35.03;;;;;;;;;;2110954;28;20058;-41
2021/10/20 00:04:24;;;;;;;74.20;40.55;;;;;;;;;;2114936;28;20284;-42
2021/10/20 00:05:25;;;;;;;79.90;41.00;;;;;;;;;;2115058;28;20051;-42
2021/10/20 00:06:26;;;;;;;78.30;40.25;;;;;;;;;;2112704;28;20050;-41
2021/10/20 00:07:27;;;;;;;82.47;42.35;;;;;;;;;;2114745;28;20056;-42
2021/10/20 00:08:28;;;;;;;82.63;43.33;;;;;;;;;;2114297;28;20173;-42
2021/10/20 00:09:29;;;;;;;84.50;42.57;;;;;;;;;;2114350;28;20096;-42
2021/10/20 00:10:30;;;;;;;83.20;40.03;;;;;;;;;;2114546;28;20138;-42
2021/10/20 00:11:31;;;;;;;77.28;40.13;;;;;;;;;;2113683;28;20043;-42
2021/10/20 00:12:33;;;;;;;83.25;40.85;;;;;;;;;;2112682;28;20039;-42
2021/10/20 00:13:34;;;;;;;84.28;41.92;;;;;;;;;;2114760;28;20071;-42
2021/10/20 00:14:35;;;;;;;82.88;40.42;;;;;;;;;;2112858;28;20126;-41
2021/10/20 00:15:36;;;;;;;80.32;41.33;;;;;;;;;;2114484;28;20052;-42
2021/10/20 00:16:37;;;;;;;84.25;41.88;;;;;;;;;;2114913;28;20048;-42
2021/10/20 00:17:38;;;;;;;91.95;42.85;;;;;;;;;;2113635;28;20105;-42
2021/10/20 00:18:40;;;;;;;76.85;40.33;;;;;;;;;;2114655;28;20039;-41
2021/10/20 00:19:41;;;;;;;78.93;40.05;;;;;;;;;;2114853;28;20188;-42
2021/10/20 00:20:42;;;;;;;70.32;37.08;;;;;;;;;;2112703;28;20123;-42
2021/10/20 00:21:43;;;;;;;72.35;38.58;;;;;;;;;;2113842;28;20044;-42
2021/10/20 00:22:44;;;;;;;74.90;37.97;;;;;;;;;;2114811;28;20050;-42
2021/10/20 00:23:45;;;;;;;77.78;39.20;;;;;;;;;;2113684;28;20047;-42
2021/10/20 00:24:46;;;;;;;78.93;39.92;;;;;;;;;;2114867;28;20498;-42
2021/10/20 00:25:47;;;;;;;63.13;35.97;;;;;;;;;;2114849;28;20052;-41
2021/10/20 00:26:48;;;;;;;71.25;35.72;;;;;;;;;;2113237;28;20164;-42
2021/10/20 00:27:50;;;;;;;67.18;34.85;;;;;;;;;;2114844;28;20389;-42
2021/10/20 00:28:51;;;;;;;60.97;34.13;;;;;;;;;;2114806;28;20092;-42
2021/10/20 00:29:52;;;;;;;66.22;34.58;;;;;;;;;;2113267;28;20047;-42
2021/10/20 00:30:53;;;;;;;68.05;37.33;;;;;;;;;;2114810;28;20408;-42
2021/10/20 00:31:54;;;;;;;61.60;33.40;;;;;;;;;;2114124;28;20047;-42
2021/10/20 00:32:55;;;;;;;63.33;33.35;;;;;;;;;;2112765;28;20521;-42
2021/10/20 00:33:56;;;;;;;58.77;34.37;;;;;;;;;;2114663;28;20047;-42
2021/10/20 00:34:57;;;;;;;62.03;33.13;;;;;;;;;;2114288;28;20181;-42
2021/10/20 00:35:58;;;;;;;62.53;33.92;;;;;;;;;;2113759;28;20553;-42
2021/10/20 00:36:59;;;;;;;68.88;36.03;;;;;;;;;;2114708;28;20142;-41
2021/10/20 00:38:00;;;;;;;65.50;34.90;;;;;;;;;;2113804;28;20100;-42
2021/10/20 00:39:01;;;;;;;61.50;34.58;;;;;;;;;;2114249;28;20048;-42
2021/10/20 00:40:03;;;;;;;66.78;35.80;;;;;;;;;;2114624;28;20051;-42
2021/10/20 00:41:03;;;;;;;;;;;;;;;;;;2113468;28;20100;-42
2021/10/20 00:42:05;;;;;;;62.10;32.38;;;;;;;;;;2113200;28;19969;-41
2021/10/20 00:43:06;;;;;;;61.17;34.33;;;;;;;;;;2114547;28;20043;-42
2021/10/20 00:44:07;;;;;;;61.50;34.58;;;;;;;;;;2113475;28;20051;-42
2021/10/20 00:45:08;;;;;;;67.15;34.72;;;;;;;;;;2114403;28;20173;-42
2021/10/20 00:46:10;;;;;;;69.50;35.67;;;;;;;;;;2114609;28;20082;-42
2021/10/20 00:47:11;;;;;;;64.22;34.97;;;;;;;;;;2112419;28;20043;-42
2021/10/20 00:48:12;;;;;;;58.28;33.28;;;;;;;;;;2114324;28;20054;-42
2021/10/20 00:49:13;;;;;;;61.15;33.78;;;;;;;;;;2114680;28;20047;-42
2021/10/20 00:50:15;;;;;;;67.47;34.85;;;;;;;;;;2113546;28;20051;-42
2021/10/20 00:51:16;;;;;;;66.90;34.75;;;;;;;;;;2114700;28;20043;-42
2021/10/20 00:52:17;;;;;;;63.08;32.42;;;;;;;;;;2114625;28;20400;-42
2021/10/20 00:53:18;;;;;;;60.67;32.92;;;;;;;;;;2113259;28;20381;-42
2021/10/20 00:54:19;;;;;;;59.47;32.25;;;;;;;;;;2114533;28;20135;-42
2021/10/20 00:55:20;;;;;;;62.23;32.40;;;;;;;;;;2114168;28;20134;-42
2021/10/20 00:56:21;;;;;;;62.55;32.58;;;;;;;;;;2112962;28;20329;-42
2021/10/20 00:57:23;;;;;;;53.90;32.35;;;;;;;;;;2114538;28;20525;-42
2021/10/20 00:58:25;;;;;;;59.15;31.98;;;;;;;;;;2114004;28;20463;-42
2021/10/20 00:59:26;;;;;;;;;;;;;;;;;;2114252;28;20135;-42
2021/10/20 01:00:27;;;;;;;55.65;30.00;;;;;;;;;;2114482;28;19930;-42
2021/10/20 01:01:28;;;;;;;55.95;31.02;;;;;;;;;;2113652;28;20096;-42
2021/10/20 01:02:30;;;;;;;56.28;31.73;;;;;;;;;;2112999;28;20400;-42
2021/10/20 01:03:31;;;;;;;58.15;29.77;;;;;;;;;;2106882;28;20068;-42
2021/10/20 01:04:32;;;;;;;59.88;31.08;;;;;;;;;;2106873;28;20044;-42
2021/10/20 01:05:34;;;;;;;54.95;30.00;;;;;;;;;;2112941;28;20494;-42
2021/10/20 01:06:35;;;;;;;;;;;;;;;;;;2114673;28;20078;-42
2021/10/20 01:07:36;;;;;;;55.60;29.60;;;;;;;;;;2113373;28;19923;-42
2021/10/20 01:08:37;;;;;;;54.33;29.83;;;;;;;;;;2114175;28;20100;-42
2021/10/20 01:09:38;;;;;;;55.30;31.20;;;;;;;;;;2114501;28;20563;-42
2021/10/20 01:10:39;;;;;;;52.45;28.58;;;;;;;;;;2112394;28;20075;-42
2021/10/20 01:11:41;;;;;;;53.05;29.52;;;;;;;;;;2114244;28;20139;-42
2021/10/20 01:12:42;;;;;;;51.10;28.60;;;;;;;;;;2114309;28;20149;-42
2021/10/20 01:13:44;;;;;;;50.13;29.97;;;;;;;;;;2113428;28;20127;-42
2021/10/20 01:14:45;;;;;;;51.30;29.60;;;;;;;;;;2114241;28;20548;-42
2021/10/20 01:15:46;;;;;;;49.17;28.67;;;;;;;;;;2114438;28;20189;-42
2021/10/20 01:16:48;;;;;;;50.63;29.10;;;;;;;;;;2113132;28;20039;-41
2021/10/20 01:17:49;;;;;;;53.13;28.73;;;;;;;;;;2113453;28;20388;-42
2021/10/20 01:18:51;;;;;;;49.65;28.35;;;;;;;;;;2114477;28;20134;-42
2021/10/20 01:19:52;;;;;;;48.25;28.83;;;;;;;;;;2112184;28;20071;-42
2021/10/20 01:20:56;;;;;;;52.80;28.70;;;;;;;;;;2114129;28;20044;-42
2021/10/20 01:21:58;;;;;;;51.80;27.95;;;;;;;;;;2114354;28;20354;-42
2021/10/20 01:22:59;;;;;;;50.08;28.40;;;;;;;;;;2111391;28;20053;-42
2021/10/20 01:24:00;;;;;;;49.65;28.73;;;;;;;;;;2114535;28;20134;-42
2021/10/20 01:25:02;;;;;;;50.70;28.55;;;;;;;;;;2114050;28;20496;-42
2021/10/20 01:26:03;;;;;;;48.92;27.88;;;;;;;;;;2113598;28;20046;-42
2021/10/20 01:27:05;;;;;;;49.13;28.27;;;;;;;;;;2114456;28;20078;-42
2021/10/20 01:28:06;;;;;;;55.55;28.98;;;;;;;;;;2113728;28;20131;-42
2021/10/20 01:29:07;;;;;;;47.27;27.03;;;;;;;;;;2111729;28;20055;-42
2021/10/20 01:30:08;;;;;;;46.97;25.85;;;;;;;;;;2114320;28;20048;-42
2021/10/20 01:31:10;;;;;;;45.17;25.35;;;;;;;;;;2113303;28;20499;-42
2021/10/20 01:32:10;;;;;;;48.22;25.65;;;;;;;;;;2113222;28;20048;-42
2021/10/20 01:33:12;;;;;;;48.58;26.65;;;;;;;;;;2114351;28;20430;-42
2021/10/20 01:34:13;;;;;;;44.00;26.23;;;;;;;;;;2112030;28;20040;-42
2021/10/20 01:35:14;;;;;;;46.17;25.75;;;;;;;;;;2114109;28;20061;-42
2021/10/20 01:36:15;;;;;;;47.83;25.45;;;;;;;;;;2114381;28;20047;-42
2021/10/20 01:37:17;;;;;;;40.67;24.80;;;;;;;;;;2113122;28;20347;-42
2021/10/20 01:38:18;;;;;;;42.20;24.50;;;;;;;;;;2114121;28;20407;-42
2021/10/20 01:39:19;;;;;;;41.58;23.52;;;;;;;;;;2114338;28;20057;-42
2021/10/20 01:40:20;;;;;;;44.35;24.65;;;;;;;;;;2111837;28;20693;-42
2021/10/20 01:41:21;;;;;;;38.70;23.02;;;;;;;;;;2114218;28;20131;-42
2021/10/20 01:42:23;;;;;;;41.20;23.38;;;;;;;;;;2114472;28;20078;-42
2021/10/20 01:43:24;;;;;;;44.35;25.23;;;;;;;;;;2112865;28;20122;-42
2021/10/20 01:44:25;;;;;;;41.20;23.02;;;;;;;;;;2114215;28;20491;-42
2021/10/20 01:45:26;;;;;;;37.05;23.35;;;;;;;;;;2114370;28;20075;-42
2021/10/20 01:46:27;;;;;;;37.63;21.57;;;;;;;;;;2111929;28;20385;-42
2021/10/20 01:47:28;;;;;;;39.80;22.30;;;;;;;;;;2114145;28;20525;-42
2021/10/20 01:48:29;;;;;;;36.55;21.50;;;;;;;;;;2113849;28;20092;-42
2021/10/20 01:49:32;;;;;;;38.83;20.75;;;;;;;;;;2112156;28;20158;-42
2021/10/20 01:50:33;;;;;;;39.58;22.60;;;;;;;;;;2114196;28;20084;-42
2021/10/20 01:51:34;;;;;;;42.35;24.25;;;;;;;;;;2113859;28;20067;-42
2021/10/20 01:52:36;;;;;;;48.03;25.55;;;;;;;;;;2113311;28;20051;-42
2021/10/20 01:53:37;;;;;;;42.78;23.63;;;;;;;;;;2114433;28;20264;-42
2021/10/20 01:54:38;;;;;;;40.28;23.90;;;;;;;;;;2113098;28;20450;-41
2021/10/20 01:55:39;;;;;;;41.47;24.17;;;;;;;;;;2113027;28;20456;-42
2021/10/20 01:56:40;;;;;;;44.15;22.98;;;;;;;;;;2114196;28;20283;-42
2021/10/20 01:57:41;;;;;;;36.63;21.52;;;;;;;;;;2112105;28;20130;-42
2021/10/20 01:58:42;;;;;;;44.03;23.65;;;;;;;;;;2114643;28;20043;-42
2021/10/20 01:59:43;;;;;;;40.65;22.38;;;;;;;;;;2114335;28;20043;-42
2021/10/20 02:00:44;;;;;;;39.38;22.63;;;;;;;;;;2112791;28;20062;-42
2021/10/20 02:01:45;;;;;;;42.80;20.23;;;;;;;;;;2113756;28;20039;-42
2021/10/20 02:02:46;;;;;;;39.63;21.30;;;;;;;;;;2112894;28;20047;-42
2021/10/20 02:03:48;;;;;;;36.53;21.58;;;;;;;;;;2108928;28;20364;-42
2021/10/20 02:04:49;;;;;;;38.88;22.65;;;;;;;;;;2113713;28;20051;-42
2021/10/20 02:05:52;;;;;;;37.85;21.48;;;;;;;;;;2114212;28;20047;-42
2021/10/20 02:06:53;;;;;;;38.55;21.92;;;;;;;;;;2111535;28;20075;-42
2021/10/20 02:07:54;;;;;;;37.17;20.30;;;;;;;;;;2113708;28;20109;-42
2021/10/20 02:08:56;;;;;;;36.47;21.73;;;;;;;;;;2114328;28;20043;-42
2021/10/20 02:09:56;;;;;;;36.63;21.48;;;;;;;;;;2112933;28;20471;-42
2021/10/20 02:10:57;;;;;;;35.92;20.23;;;;;;;;;;2113933;28;20047;-42
2021/10/20 02:11:58;;;;;;;35.90;18.02;;;;;;;;;;2114053;28;20082;-42
2021/10/20 02:13:00;;;;;;;35.58;20.33;;;;;;;;;;2112177;28;20036;-42
2021/10/20 02:14:00;;;;;;;34.85;20.85;;;;;;;;;;2113635;28;20051;-42
2021/10/20 02:15:02;;;;;;;38.45;21.38;;;;;;;;;;2114075;28;20051;-42
2021/10/20 02:16:04;;;;;;;41.92;19.40;;;;;;;;;;2112934;28;20130;-42
2021/10/20 02:17:05;;;;;;;30.65;18.88;;;;;;;;;;2114063;28;20126;-42
2021/10/20 02:18:06;;;;;;;36.58;19.10;;;;;;;;;;2114218;28;20050;-42
2021/10/20 02:19:08;;;;;;;33.47;19.08;;;;;;;;;;2111490;28;20051;-42
2021/10/20 02:20:10;;;;;;;33.58;19.45;;;;;;;;;;2114167;28;20120;-42
2021/10/20 02:21:11;;;;;;;33.67;19.70;;;;;;;;;;2113665;28;20048;-42
2021/10/20 02:22:12;;;;;;;31.77;18.40;;;;;;;;;;2113073;28;20043;-42
2021/10/20 02:23:13;;;;;;;30.27;17.02;;;;;;;;;;2114058;28;20484;-42
2021/10/20 02:24:14;;;;;;;31.08;17.50;;;;;;;;;;2113513;28;20134;-42
2021/10/20 02:25:15;;;;;;;29.98;18.23;;;;;;;;;;2113441;28;20126;-42
2021/10/20 02:26:16;;;;;;;27.92;17.23;;;;;;;;;;2114006;28;20043;-42
2021/10/20 02:27:17;;;;;;;28.75;16.60;;;;;;;;;;2112809;28;20571;-41
2021/10/20 02:28:18;;;;;;;29.13;17.13;;;;;;;;;;2114021;28;20054;-42
2021/10/20 02:29:19;;;;;;;29.33;16.70;;;;;;;;;;2114188;28;20066;-42
2021/10/20 02:30:21;;;;;;;27.17;17.13;;;;;;;;;;2111930;28;20287;-42
2021/10/20 02:31:22;;;;;;;27.98;15.43;;;;;;;;;;2113716;28;20131;-42
2021/10/20 02:32:23;;;;;;;29.92;17.67;;;;;;;;;;2113958;28;20055;-41
2021/10/20 02:33:24;;;;;;;27.48;15.32;;;;;;;;;;2113062;28;20043;-42
2021/10/20 02:34:26;;;;;;;28.48;14.73;;;;;;;;;;2112708;28;20043;-42
2021/10/20 02:35:27;;;;;;;29.27;14.05;;;;;;;;;;2115452;28;20555;-42
2021/10/20 02:36:28;;;;;;;21.35;13.27;;;;;;;;;;2113291;28;20048;-42
2021/10/20 02:37:29;;;;;;;19.30;12.82;;;;;;;;;;2115039;28;20047;-42
2021/10/20 02:38:30;;;;;;;22.75;13.05;;;;;;;;;;2115599;28;20047;-42
2021/10/20 02:39:31;;;;;;;20.52;11.88;;;;;;;;;;2114352;28;20510;-42
2021/10/20 02:40:33;;;;;;;19.23;11.23;;;;;;;;;;2115302;28;20046;-42
2021/10/20 02:41:33;;;;;;;21.42;12.10;;;;;;;;;;2115440;28;20624;-42
2021/10/20 02:42:35;;;;;;;17.90;10.30;;;;;;;;;;2114385;28;20091;-42
2021/10/20 02:43:37;;;;;;;20.38;10.75;;;;;;;;;;2114309;28;20150;-42
2021/10/20 02:44:38;;;;;;;19.42;10.80;;;;;;;;;;2115352;28;20047;-42
2021/10/20 02:45:39;;;;;;;18.67;10.70;;;;;;;;;;2114159;28;20563;-42
2021/10/20 02:46:41;;;;;;;21.65;11.50;;;;;;;;;;2115344;28;20044;-42
2021/10/20 02:47:42;;;;;;;14.75;9.60;;;;;;;;;;2115383;28;20456;-42
2021/10/20 02:48:44;;;;;;;18.17;11.05;;;;;;;;;;2113982;28;20138;-42
2021/10/20 02:49:45;;;;;;;18.65;11.18;;;;;;;;;;2115487;28;20122;-42
2021/10/20 02:50:46;;;;;;;22.02;9.65;;;;;;;;;;2115383;28;20460;-42
2021/10/20 02:51:47;;;;;;;18.13;10.70;;;;;;;;;;2113376;28;20492;-42
2021/10/20 02:52:48;;;;;;;17.23;10.55;;;;;;;;;;2115287;28;20061;-42
2021/10/20 02:53:50;;;;;;;18.92;10.45;;;;;;;;;;2115010;28;20130;-42
2021/10/20 02:54:51;;;;;;;14.85;8.73;;;;;;;;;;2113305;28;20477;-42
2021/10/20 02:55:52;;;;;;;19.55;10.38;;;;;;;;;;2115283;28;20484;-42
2021/10/20 02:56:53;;;;;;;21.25;11.43;;;;;;;;;;2114635;28;20048;-42
2021/10/20 02:57:54;;;;;;;18.67;10.18;;;;;;;;;;2114831;28;20075;-42
2021/10/20 02:58:55;;;;;;;20.60;10.38;;;;;;;;;;2115421;28;20411;-42
2021/10/20 02:59:57;;;;;;;18.65;9.75;;;;;;;;;;2113788;28;20135;-42
2021/10/20 03:00:58;;;;;;;17.08;9.25;;;;;;;;;;2115660;28;20285;-42
2021/10/20 03:02:00;;;;;;;20.10;10.20;;;;;;;;;;2115189;28;20051;-42
2021/10/20 03:03:01;;;;;;;15.75;9.82;;;;;;;;;;2112265;28;20040;-42
2021/10/20 03:04:02;;;;;;;17.60;9.80;;;;;;;;;;2115474;28;20530;-42
2021/10/20 03:05:03;;;;;;;15.90;9.68;;;;;;;;;;2115362;28;20070;-42
2021/10/20 03:06:04;;;;;;;16.30;8.93;;;;;;;;;;2114372;28;20468;-42
2021/10/20 03:07:05;;;;;;;17.25;9.00;;;;;;;;;;2114279;28;20192;-42
2021/10/20 03:08:06;;;;;;;13.80;8.52;;;;;;;;;;2115422;28;20134;-42
2021/10/20 03:09:08;;;;;;;15.00;8.80;;;;;;;;;;2114133;28;20083;-42
2021/10/20 03:10:09;;;;;;;15.15;8.60;;;;;;;;;;2114033;28;20587;-42
2021/10/20 03:11:11;;;;;;;14.55;8.40;;;;;;;;;;2115194;28;20051;-42
2021/10/20 03:12:11;;;;;;;16.95;9.13;;;;;;;;;;2114237;28;20130;-42
2021/10/20 03:13:13;;;;;;;18.77;8.98;;;;;;;;;;2115069;28;20058;-42
2021/10/20 03:14:14;;;;;;;16.88;9.02;;;;;;;;;;2115305;28;20127;-42
2021/10/20 03:15:15;;;;;;;15.18;8.23;;;;;;;;;;2112887;28;20050;-42
2021/10/20 03:16:16;;;;;;;15.35;8.52;;;;;;;;;;2115251;28;20127;-42
2021/10/20 03:17:18;;;;;;;15.23;8.10;;;;;;;;;;2115259;28;20484;-42
2021/10/20 03:18:18;;;;;;;16.85;8.80;;;;;;;;;;2112282;28;20131;-42
2021/10/20 03:19:20;;;;;;;17.15;8.48;;;;;;;;;;2106959;28;20542;-42
2021/10/20 03:20:20;;;;;;;14.50;8.52;;;;;;;;;;2106701;28;20131;-42
2021/10/20 03:21:22;;;;;;;14.95;8.45;;;;;;;;;;2111702;28;20055;-42
2021/10/20 03:22:22;;;;;;;16.70;8.45;;;;;;;;;;2115139;28;20616;-42
2021/10/20 03:23:24;;;;;;;12.38;7.60;;;;;;;;;;2115142;28;20048;-42
2021/10/20 03:24:26;;;;;;;13.68;8.02;;;;;;;;;;2114394;28;20044;-42
2021/10/20 03:25:27;;;;;;;14.73;8.60;;;;;;;;;;2115175;28;20043;-42
2021/10/20 03:26:28;;;;;;;13.53;7.53;;;;;;;;;;2114865;28;20104;-42
2021/10/20 03:27:32;;;;;;;16.75;8.90;;;;;;;;;;2114554;28;20282;-45
2021/10/20 03:28:33;;;;;;;14.30;8.15;;;;;;;;;;2115190;28;20518;-46
2021/10/20 03:29:34;;;;;;;17.17;7.70;;;;;;;;;;2113966;28;20040;-46
2021/10/20 03:30:35;;;;;;;16.20;7.82;;;;;;;;;;2113900;28;20567;-45
2021/10/20 03:31:36;;;;;;;14.10;7.65;;;;;;;;;;2115112;28;20415;-45
2021/10/20 03:32:37;;;;;;;14.20;7.07;;;;;;;;;;2113160;28;20051;-46
2021/10/20 03:33:39;;;;;;;13.93;8.10;;;;;;;;;;2115587;28;20127;-46
2021/10/20 03:34:39;;;;;;;13.80;7.80;;;;;;;;;;2115118;28;20126;-45
2021/10/20 03:35:41;;;;;;;16.27;7.38;;;;;;;;;;2113908;28;20048;-46
2021/10/20 03:36:42;;;;;;;14.57;7.07;;;;;;;;;;2114929;28;20039;-45
2021/10/20 03:37:43;;;;;;;13.75;7.72;;;;;;;;;;2115019;28;20413;-45
2021/10/20 03:38:44;;;;;;;13.93;7.57;;;;;;;;;;2114002;28;20093;-45
2021/10/20 03:39:46;;;;;;;13.05;6.93;;;;;;;;;;2114892;28;20086;-46
2021/10/20 03:40:47;;;;;;;17.35;7.10;;;;;;;;;;2114981;28;20396;-45
2021/10/20 03:42:09;;;;;;;14.60;7.07;;;;;;;;;;2113647;28;20040;-46
2021/10/20 03:43:10;;;;;;;13.90;7.30;;;;;;;;;;2115213;28;20131;-42
2021/10/20 03:44:11;;;;;;;11.25;6.53;;;;;;;;;;2114581;28;20075;-42
2021/10/20 03:45:13;;;;;;;12.88;7.20;;;;;;;;;;2114130;28;20075;-42
2021/10/20 03:46:14;;;;;;;13.07;7.13;;;;;;;;;;2114746;28;20520;-42
2021/10/20 03:47:15;;;;;;;11.60;6.97;;;;;;;;;;2114439;28;20054;-42
2021/10/20 03:48:16;;;;;;;12.98;6.80;;;;;;;;;;2113066;28;20053;-42
2021/10/20 03:49:17;;;;;;;11.53;7.07;;;;;;;;;;2115112;28;20293;-42
2021/10/20 03:50:18;;;;;;;11.98;7.25;;;;;;;;;;2114062;28;20320;-42
2021/10/20 03:51:19;;;;;;;11.93;7.13;;;;;;;;;;2114546;28;20039;-42
2021/10/20 03:52:20;;;;;;;16.65;6.93;;;;;;;;;;2115067;28;20134;-42
2021/10/20 03:53:21;;;;;;;12.13;6.53;;;;;;;;;;2113628;28;20052;-42
2021/10/20 03:54:22;;;;;;;13.30;6.75;;;;;;;;;;2115221;28;20431;-42
2021/10/20 03:55:24;;;;;;;12.35;6.38;;;;;;;;;;2114732;28;20052;-42
2021/10/20 03:56:25;;;;;;;14.70;6.70;;;;;;;;;;2113069;28;20075;-42
2021/10/20 03:57:26;;;;;;;13.77;7.30;;;;;;;;;;2114629;28;20472;-42
2021/10/20 03:58:27;;;;;;;11.38;6.45;;;;;;;;;;2114860;28;20131;-42
2021/10/20 03:59:28;;;;;;;11.80;6.30;;;;;;;;;;2113925;28;20408;-42
2021/10/20 04:00:30;;;;;;;11.23;6.00;;;;;;;;;;2114576;28;20371;-42
2021/10/20 04:01:30;;;;;;;10.85;5.65;;;;;;;;;;2114988;28;20054;-42
2021/10/20 04:02:32;;;;;;;11.77;6.27;;;;;;;;;;2113915;28;20051;-42
2021/10/20 04:03:33;;;;;;;12.10;6.15;;;;;;;;;;2111437;28;20315;-42
2021/10/20 04:04:34;;;;;;;13.93;7.30;;;;;;;;;;2115105;28;20040;-42
2021/10/20 04:05:35;;;;;;;9.90;6.07;;;;;;;;;;2113686;28;20428;-42
2021/10/20 04:06:36;;;;;;;11.18;6.07;;;;;;;;;;2114866;28;20047;-42
2021/10/20 04:07:37;;;;;;;12.75;6.18;;;;;;;;;;2114722;28;20477;-42
2021/10/20 04:08:39;;;;;;;8.65;5.65;;;;;;;;;;2113722;28;20383;-42
2021/10/20 04:09:39;;;;;;;19.48;6.32;;;;;;;;;;2114679;28;20531;-42
2021/10/20 04:10:41;;;;;;;11.82;6.00;;;;;;;;;;2114886;28;20056;-42
2021/10/20 04:11:42;;;;;;;11.55;6.15;;;;;;;;;;2112707;28;20051;-42
2021/10/20 04:12:44;;;;;;;9.40;5.57;;;;;;;;;;2114932;28;20039;-42
2021/10/20 04:13:44;;;;;;;12.43;6.18;;;;;;;;;;2114533;28;20039;-42
2021/10/20 04:14:46;;;;;;;8.90;5.05;;;;;;;;;;2113587;28;20110;-42
2021/10/20 04:15:47;;;;;;;9.45;5.03;;;;;;;;;;2114851;28;20377;-42
2021/10/20 04:16:48;;;;;;;9.70;4.80;;;;;;;;;;2113407;28;20050;-42
2021/10/20 04:17:49;;;;;;;17.83;5.03;;;;;;;;;;2113920;28;20185;-42
2021/10/20 04:18:50;;;;;;;9.48;4.90;;;;;;;;;;2114911;28;20096;-42
2021/10/20 04:19:51;;;;;;;15.30;5.40;;;;;;;;;;2112923;28;20051;-42
2021/10/20 04:20:52;;;;;;;13.68;5.53;;;;;;;;;;2113036;28;20051;-42
2021/10/20 04:21:53;;;;;;;9.18;4.57;;;;;;;;;;2114823;28;20126;-42
2021/10/20 04:22:54;;;;;;;8.32;4.38;;;;;;;;;;2113628;28;20044;-42
2021/10/20 04:23:55;;;;;;;10.77;4.63;;;;;;;;;;2114323;28;20492;-42
2021/10/20 04:24:56;;;;;;;9.65;4.75;;;;;;;;;;2114837;28;20047;-42
2021/10/20 04:25:57;;;;;;;10.80;4.78;;;;;;;;;;2112527;28;20052;-42
2021/10/20 04:26:59;;;;;;;10.98;5.15;;;;;;;;;;2114525;28;20051;-42
2021/10/20 04:28:00;;;;;;;9.70;5.45;;;;;;;;;;2114773;28;20122;-42
2021/10/20 04:29:01;;;;;;;10.95;5.57;;;;;;;;;;2113814;28;20126;-42
2021/10/20 04:30:02;;;;;;;13.57;5.93;;;;;;;;;;2113706;28;20492;-42
2021/10/20 04:31:03;;;;;;;10.27;5.72;;;;;;;;;;2114750;28;20280;-42
2021/10/20 04:32:04;;;;;;;13.77;5.70;;;;;;;;;;2113599;28;20055;-43
2021/10/20 04:33:06;;;;;;;12.90;5.70;;;;;;;;;;2113560;28;20051;-43
2021/10/20 04:34:06;;;;;;;12.05;6.32;;;;;;;;;;2114870;28;20108;-42
2021/10/20 04:35:08;;;;;;;11.57;6.18;;;;;;;;;;2113538;28;20112;-42
2021/10/20 04:36:09;;;;;;;8.70;5.82;;;;;;;;;;2114638;28;20126;-42
2021/10/20 04:37:10;;;;;;;10.95;5.68;;;;;;;;;;2114548;28;20483;-43
2021/10/20 04:38:11;;;;;;;14.10;5.83;;;;;;;;;;2110653;28;20138;-42
2021/10/20 04:39:13;;;;;;;9.18;5.55;;;;;;;;;;2114664;28;20288;-42
2021/10/20 04:40:14;;;;;;;9.55;5.38;;;;;;;;;;2114780;28;20173;-42
2021/10/20 04:41:15;;;;;;;10.70;5.80;;;;;;;;;;2112404;28;20554;-42
2021/10/20 04:42:16;;;;;;;11.70;6.28;;;;;;;;;;2114824;28;20181;-42
2021/10/20 04:43:18;;;;;;;9.23;5.65;;;;;;;;;;2112691;28;20126;-42
2021/10/20 04:44:18;;;;;;;11.15;6.28;;;;;;;;;;2115169;28;20048;-42
2021/10/20 04:45:20;;;;;;;13.73;6.10;;;;;;;;;;2114730;28;20388;-42
2021/10/20 04:46:21;;;;;;;10.95;6.28;;;;;;;;;;2113581;28;20181;-43
2021/10/20 04:47:22;;;;;;;13.18;6.55;;;;;;;;;;2114477;28;20524;-42
2021/10/20 04:48:23;;;;;;;11.57;6.57;;;;;;;;;;2114580;28;20169;-42
2021/10/20 04:49:24;;;;;;;9.52;6.50;;;;;;;;;;2112694;28;20134;-42
2021/10/20 04:50:25;;;;;;;14.55;7.43;;;;;;;;;;2114271;28;20040;-43
2021/10/20 04:51:26;;;;;;;12.18;7.15;;;;;;;;;;2114814;28;20134;-42
2021/10/20 04:52:29;;;;;;;11.38;6.38;;;;;;;;;;2113021;28;20400;-42
2021/10/20 04:53:30;;;;;;;12.90;6.82;;;;;;;;;;2113614;28;20070;-42
2021/10/20 04:54:31;;;;;;;12.45;6.05;;;;;;;;;;2114644;28;20046;-42
2021/10/20 04:55:34;;;;;;;9.90;6.72;;;;;;;;;;2112405;28;20067;-42
2021/10/20 04:56:36;;;;;;;14.00;6.80;;;;;;;;;;2113536;28;20478;-43
2021/10/20 04:57:37;;;;;;;13.52;7.10;;;;;;;;;;2113734;28;20051;-42
2021/10/20 04:58:38;;;;;;;13.03;7.90;;;;;;;;;;2112362;28;20055;-42
2021/10/20 04:59:39;;;;;;;13.93;7.65;;;;;;;;;;2114464;28;20042;-42
2021/10/20 05:00:40;;;;;;;15.90;7.57;;;;;;;;;;2114693;28;20404;-42
2021/10/20 05:01:41;;;;;;;15.05;7.88;;;;;;;;;;2113025;28;21162;-42
2021/10/20 05:02:42;;;;;;;11.38;7.70;;;;;;;;;;2114566;28;20048;-42
2021/10/20 05:03:43;;;;;;;14.45;7.82;;;;;;;;;;2104954;28;20043;-43
2021/10/20 05:04:44;;;;;;;18.90;8.52;;;;;;;;;;2111821;28;20052;-42
2021/10/20 05:05:45;;;;;;;16.63;8.75;;;;;;;;;;2114577;28;20123;-42
2021/10/20 05:06:46;;;;;;;14.88;8.15;;;;;;;;;;2113964;28;20550;-42
2021/10/20 05:07:48;;;;;;;15.45;8.50;;;;;;;;;;2113046;28;20048;-42
2021/10/20 05:08:49;;;;;;;16.08;8.93;;;;;;;;;;2114563;28;20051;-42
2021/10/20 05:09:50;;;;;;;15.55;9.10;;;;;;;;;;2114005;28;20048;-42
2021/10/20 05:10:51;;;;;;;17.60;8.65;;;;;;;;;;2112566;28;20086;-42
2021/10/20 05:11:53;;;;;;;19.50;10.13;;;;;;;;;;2114554;28;20071;-42
2021/10/20 05:12:54;;;;;;;15.77;9.55;;;;;;;;;;2113144;28;20039;-42
2021/10/20 05:13:55;;;;;;;21.38;10.05;;;;;;;;;;2114073;28;20496;-42
2021/10/20 05:14:56;;;;;;;19.40;10.00;;;;;;;;;;2114321;28;20486;-42
2021/10/20 05:15:57;;;;;;;16.93;9.43;;;;;;;;;;2112312;28;20051;-42
2021/10/20 05:16:58;;;;;;;19.55;9.20;;;;;;;;;;2113921;28;20056;-42
2021/10/20 05:17:59;;;;;;;18.70;9.95;;;;;;;;;;2114573;28;20069;-42
2021/10/20 05:19:00;;;;;;;16.30;9.40;;;;;;;;;;2113393;28;20054;-42
2021/10/20 05:20:02;;;;;;;18.20;9.63;;;;;;;;;;2112932;28;20047;-42
2021/10/20 05:21:03;;;;;;;;;;;;;;;;;;2114813;28;20584;-42
2021/10/20 05:22:06;;;;;;;15.30;8.63;;;;;;;;;;2113339;28;19935;-43
2021/10/20 05:23:10;;;;;;;18.48;9.15;;;;;;;;;;2113043;28;20051;-42
2021/10/20 05:24:11;;;;;;;17.00;9.70;;;;;;;;;;2114360;28;20122;-42
2021/10/20 05:25:13;;;;;;;17.02;8.82;;;;;;;;;;2113338;28;20118;-42
2021/10/20 05:26:14;;;;;;;18.27;10.25;;;;;;;;;;2113187;28;20134;-42
2021/10/20 05:27:15;;;;;;;19.20;10.00;;;;;;;;;;2114439;28;20130;-42
2021/10/20 05:28:16;;;;;;;19.02;9.73;;;;;;;;;;2112000;28;20501;-42
2021/10/20 05:29:17;;;;;;;17.63;9.95;;;;;;;;;;2114351;28;20052;-42
2021/10/20 05:30:19;;;;;;;16.97;10.00;;;;;;;;;;2114501;28;20427;-42
2021/10/20 05:31:20;;;;;;;19.15;10.18;;;;;;;;;;2112970;28;20082;-42
2021/10/20 05:32:21;;;;;;;18.67;10.17;;;;;;;;;;2114217;28;20450;-42
2021/10/20 05:33:22;;;;;;;13.68;9.18;;;;;;;;;;2114338;28;20284;-42
2021/10/20 05:34:23;;;;;;;17.00;10.18;;;;;;;;;;2113046;28;20196;-42
2021/10/20 05:35:24;;;;;;;16.15;9.60;;;;;;;;;;2114382;28;20069;-42
2021/10/20 05:36:25;;;;;;;16.48;9.60;;;;;;;;;;2113823;28;20127;-42
2021/10/20 05:37:26;;;;;;;15.82;9.20;;;;;;;;;;2113375;28;20062;-43
2021/10/20 05:38:27;;;;;;;18.33;10.00;;;;;;;;;;2114371;28;20126;-43
2021/10/20 05:39:28;;;;;;;17.02;9.27;;;;;;;;;;2113971;28;20306;-42
2021/10/20 05:40:30;;;;;;;17.30;9.93;;;;;;;;;;2110387;28;20659;-42
2021/10/20 05:41:31;;;;;;;18.88;10.48;;;;;;;;;;2114293;28;20598;-43
2021/10/20 05:42:32;;;;;;;17.05;9.98;;;;;;;;;;2113201;28;20559;-43
2021/10/20 05:43:33;;;;;;;18.27;9.70;;;;;;;;;;2113277;28;20488;-42
2021/10/20 05:44:34;;;;;;;22.48;11.32;;;;;;;;;;2114173;28;20050;-42
2021/10/20 05:45:36;;;;;;;19.85;9.75;;;;;;;;;;2113337;28;20079;-43
2021/10/20 05:46:36;;;;;;;17.88;10.63;;;;;;;;;;2113975;28;20419;-42
2021/10/20 05:47:38;;;;;;;19.63;9.73;;;;;;;;;;2114180;28;20048;-43
2021/10/20 05:48:39;;;;;;;19.45;10.25;;;;;;;;;;2112693;28;20129;-42
2021/10/20 05:49:40;;;;;;;18.60;9.85;;;;;;;;;;2114158;28;20049;-43
2021/10/20 05:50:41;;;;;;;16.33;9.85;;;;;;;;;;2114017;28;20126;-43
2021/10/20 05:51:42;;;;;;;18.90;10.48;;;;;;;;;;2113243;28;20039;-43
2021/10/20 05:52:43;;;;;;;18.48;9.15;;;;;;;;;;2114125;28;20053;-42
2021/10/20 05:53:44;;;;;;;13.77;8.98;;;;;;;;;;2114427;28;20127;-42
2021/10/20 05:54:45;;;;;;;18.02;9.82;;;;;;;;;;2113042;28;20135;-42
2021/10/20 05:55:46;;;;;;;21.27;10.05;;;;;;;;;;2114054;28;20051;-42
2021/10/20 05:56:47;;;;;;;18.67;9.90;;;;;;;;;;2114003;28;20559;-42
2021/10/20 05:57:49;;;;;;;17.90;10.23;;;;;;;;;;2112788;28;20059;-43
2021/10/20 05:58:49;;;;;;;15.38;8.95;;;;;;;;;;2114412;28;20048;-43
2021/10/20 05:59:51;;;;;;;17.30;10.37;;;;;;;;;;2114170;28;20474;-43